Time;durP1;ratioP1;P1;durP2;ratioP2;P2;SDS_P1;SDS_P2;PMS_P1;PMS_P2;Temp;Humidity;BMP_temperature;BMP_pressure;BME280_temperature;BME280_humidity;BME280_pressure;Samples;Min_cycle;Max_cycle;Signal;HPM_P1;HPM_P2
2023/03/29 00:01:05;;;;;;;13.30;6.90;;;8.80;99.90;;;8.82;75.53;101427.31;4992105;28;20287;-70
2023/03/29 00:03:33;;;;;;;9.95;6.72;;;8.70;99.90;;;8.90;75.69;101429.16;4993216;28;20038;-69
2023/03/29 00:06:04;;;;;;;8.13;6.93;;;8.70;99.90;;;9.09;75.08;101435.53;4993262;28;20046;-70
2023/03/29 00:08:36;;;;;;;9.65;7.00;;;8.90;99.90;;;9.24;74.71;101425.16;4993573;28;20097;-69
2023/03/29 00:11:05;;;;;;;9.18;7.40;;;9.00;99.90;;;9.32;74.39;101420.81;4993015;28;20043;-70
2023/03/29 00:13:33;;;;;;;14.45;6.97;;;9.10;99.90;;;9.32;74.16;101423.47;4991873;28;20422;-70
2023/03/29 00:16:02;;;;;;;13.13;7.68;;;9.10;99.90;;;9.42;73.57;101417.41;4993041;28;20546;-69
2023/03/29 00:18:30;;;;;;;10.57;8.10;;;9.20;99.90;;;9.43;73.83;101411.25;4992849;28;20048;-70
2023/03/29 00:20:59;;;;;;;10.35;7.43;;;9.20;99.90;;;9.50;73.73;101401.63;4993001;28;20408;-69
2023/03/29 00:23:28;;;;;;;9.80;7.20;;;9.30;99.90;;;9.61;74.16;101405.22;4993006;28;20074;-69
2023/03/29 00:25:58;;;;;;;11.90;6.80;;;9.30;99.90;;;9.13;73.78;101315.97;4992986;28;20480;-70
2023/03/29 00:28:27;;;;;;;11.38;7.80;;;9.40;99.90;;;9.62;73.61;101391.16;4992797;28;20046;-70
2023/03/29 00:31:06;;;;;;;8.63;7.10;;;9.40;99.90;;;9.71;73.93;101391.22;4991572;28;20140;-70
2023/03/29 00:33:34;;;;;;;10.32;6.78;;;9.40;99.90;;;9.69;73.50;101391.22;4992741;28;20046;-70
2023/03/29 00:36:04;;;;;;;12.05;7.47;;;9.40;99.90;;;9.79;73.81;101389.53;4992925;28;20043;-70
2023/03/29 00:38:33;;;;;;;9.77;7.10;;;9.50;99.90;;;9.82;73.74;101389.53;4996870;28;20082;-70
2023/03/29 00:41:05;;;;;;;10.60;6.85;;;9.50;99.90;;;9.73;73.48;101358.69;4999098;28;20503;-69
2023/03/29 00:43:55;;;;;;;15.15;8.00;;;9.60;99.90;;;9.85;73.43;101384.28;4999454;28;20034;-70
2023/03/29 00:46:24;;;;;;;9.70;7.22;;;9.60;99.90;;;9.79;73.30;101400.97;4998138;28;20050;-70
2023/03/29 00:48:57;;;;;;;10.23;7.25;;;9.60;99.90;;;9.83;73.59;101389.53;4999059;28;20492;-70
2023/03/29 00:51:30;;;;;;;8.48;6.80;;;9.60;99.90;;;9.72;73.67;101362.19;4999509;28;20112;-70
2023/03/29 00:54:01;;;;;;;11.93;7.65;;;9.60;99.90;;;9.64;73.83;101345.38;4998086;28;20357;-70
2023/03/29 00:56:35;;;;;;;13.73;7.53;;;9.60;99.90;;;9.86;73.77;101392.22;4999086;28;20060;-70
2023/03/29 00:59:08;;;;;;;12.52;7.70;;;9.60;99.90;;;9.91;73.69;101373.78;4998222;28;20060;-70
2023/03/29 01:01:43;;;;;;;9.60;6.90;;;9.70;99.90;;;9.88;73.74;101373.72;4999672;28;20419;-70
2023/03/29 01:04:19;;;;;;;11.30;8.05;;;9.70;99.90;;;9.93;73.72;101366.69;4998163;28;20088;-70
2023/03/29 01:06:56;;;;;;;10.73;7.50;;;9.70;99.90;;;9.98;73.72;101370.28;4997873;28;20150;-70
2023/03/29 01:09:28;;;;;;;11.77;8.13;;;9.70;99.90;;;9.92;73.82;101367.59;4998922;28;20069;-70
2023/03/29 01:12:07;;;;;;;9.63;8.00;;;9.70;99.90;;;9.92;74.31;101365.84;4997816;28;20136;-70
2023/03/29 01:14:40;;;;;;;11.95;8.20;;;9.70;99.90;;;9.87;74.87;101351.69;4998026;28;20042;-70
2023/03/29 01:17:11;;;;;;;11.50;7.70;;;9.70;99.90;;;9.93;74.92;101364.94;4997936;28;20050;-69
2023/03/29 01:19:45;;;;;;;10.37;8.13;;;9.70;99.90;;;9.93;75.07;101357.03;4999004;28;20043;-70
2023/03/29 01:22:30;;;;;;;10.77;8.23;;;9.70;99.90;;;9.89;75.64;101338.53;4998847;28;20121;-70
2023/03/29 01:25:10;;;;;;;13.07;8.88;;;9.70;99.90;;;9.89;75.79;101334.09;4998705;28;20515;-69
2023/03/29 01:27:56;;;;;;;12.00;9.05;;;9.70;99.90;;;9.91;76.19;101339.41;4999009;28;20447;-70
2023/03/29 01:30:30;;;;;;;14.25;9.02;;;9.60;99.90;;;9.99;76.01;101330.66;4996377;28;20077;-70
2023/03/29 01:33:04;;;;;;;12.68;8.68;;;9.70;99.90;;;9.98;75.95;101325.34;4999016;28;20121;-69
2023/03/29 01:35:39;;;;;;;14.32;8.98;;;9.80;99.90;;;10.08;76.25;101328.94;4998945;28;20043;-69
2023/03/29 01:38:13;;;;;;;11.98;9.18;;;9.80;99.90;;;10.14;76.21;101335.19;4998694;28;20042;-70
2023/03/29 01:40:41;;;;;;;15.77;9.63;;;9.90;99.90;;;10.11;76.55;101335.13;4998861;28;20487;-70
2023/03/29 01:43:23;;;;;;;12.55;9.18;;;9.80;99.90;;;10.13;76.84;101321.91;4998797;28;20192;-70
2023/03/29 01:46:01;;;;;;;13.73;9.63;;;9.80;99.90;;;10.04;76.80;101313.03;4998586;28;20047;-70
2023/03/29 01:48:36;;;;;;;12.63;8.73;;;9.90;99.90;;;10.23;76.92;101329.03;4998937;28;20050;-70
2023/03/29 01:51:10;;;;;;;13.63;9.05;;;9.90;99.90;;;10.21;76.75;101329.03;4994828;28;20043;-70
2023/03/29 01:53:43;;;;;;;13.40;8.88;;;9.90;99.90;;;10.18;77.34;101321.06;4996113;28;20093;-70
2023/03/29 01:56:15;;;;;;;12.77;9.52;;;9.90;99.90;;;10.24;76.80;101321.09;4995802;28;20042;-70
2023/03/29 01:58:50;;;;;;;17.23;9.50;;;9.90;99.90;;;10.28;76.73;101322.00;4994501;28;20050;-70
2023/03/29 02:01:22;;;;;;;14.07;9.32;;;10.00;99.90;;;10.24;76.89;101320.22;4995565;28;20121;-70
2023/03/29 02:03:54;;;;;;;12.82;9.35;;;10.00;99.90;;;10.26;76.67;101329.91;4994644;28;20058;-70
2023/03/29 02:06:26;;;;;;;13.38;8.75;;;10.00;99.90;;;9.64;76.60;101192.22;4994446;28;20070;-70
2023/03/29 02:08:56;;;;;;;14.13;9.77;;;10.10;99.90;;;10.30;76.30;101301.75;4995529;28;20492;-69
2023/03/29 02:11:28;;;;;;;11.80;9.23;;;10.10;99.90;;;10.34;76.07;101300.84;4994342;28;20153;-70
2023/03/29 02:13:58;;;;;;;14.07;9.25;;;10.20;99.90;;;10.46;76.08;101316.78;4994409;28;20579;-70
2023/03/29 02:16:26;;;;;;;14.23;9.25;;;10.20;99.90;;;10.43;76.18;101315.00;4995834;28;20150;-69
2023/03/29 02:18:57;;;;;;;13.50;9.02;;;10.20;99.90;;;10.48;76.21;101313.25;4995523;28;20050;-70
2023/03/29 02:21:30;;;;;;;13.02;9.90;;;10.20;99.90;;;10.42;76.10;101294.72;4995517;28;20038;-69
2023/03/29 02:24:05;;;;;;;15.02;9.57;;;10.20;99.90;;;10.54;76.03;101296.53;4994978;28;20066;-70
2023/03/29 02:26:34;;;;;;;14.38;9.40;;;10.30;99.90;;;10.52;75.70;101291.22;4995301;28;20133;-70
2023/03/29 02:29:03;;;;;;;16.75;9.88;;;10.20;99.90;;;10.49;75.83;101293.00;4993820;28;20050;-70
2023/03/29 02:31:38;;;;;;;10.70;8.98;;;10.20;99.90;;;10.51;76.07;101297.38;4993839;28;20058;-70
2023/03/29 02:34:14;;;;;;;12.82;9.27;;;10.20;99.90;;;10.41;75.86;101270.94;4995184;28;20392;-69
2023/03/29 02:36:47;;;;;;;12.05;9.75;;;10.30;99.90;;;10.54;76.02;101288.59;4993667;28;20169;-70
2023/03/29 02:39:17;;;;;;;13.50;8.93;;;10.30;99.90;;;10.62;75.40;101286.84;4993642;28;20096;-70
2023/03/29 02:41:50;;;;;;;11.50;8.90;;;10.30;99.90;;;10.64;75.60;101274.50;4993609;28;20065;-70
2023/03/29 02:44:23;;;;;;;13.93;9.07;;;10.30;99.90;;;10.62;75.61;101269.22;4993509;28;20412;-70
2023/03/29 02:46:56;;;;;;;15.98;9.88;;;10.30;99.90;;;10.56;75.81;101278.91;4993415;28;20133;-70
2023/03/29 02:49:25;;;;;;;15.52;10.23;;;10.30;99.90;;;10.64;75.73;101274.50;4994569;28;20054;-70
2023/03/29 02:51:57;;;;;;;10.68;9.60;;;10.30;99.90;;;10.58;75.60;101269.19;4994642;28;20435;-70
2023/03/29 02:54:30;;;;;;;13.27;9.85;;;10.40;99.90;;;10.69;75.64;101305.38;4993397;28;20050;-70
2023/03/29 02:57:01;;;;;;;12.75;9.68;;;10.40;99.90;;;10.71;75.25;101270.97;4992931;28;20108;-70
2023/03/29 02:59:32;;;;;;;15.15;10.63;;;10.40;99.90;;;10.74;75.25;101261.28;4994247;28;20496;-70
2023/03/29 03:02:00;;;;;;;14.52;10.10;;;10.50;99.90;;;10.77;75.20;101271.00;4993023;28;20431;-70
2023/03/29 03:04:30;;;;;;;13.13;10.38;;;10.50;99.90;;;10.81;75.28;101275.41;4993022;28;20042;-70
2023/03/29 03:06:58;;;;;;;12.25;9.98;;;10.50;99.90;;;10.85;75.35;101261.31;4994614;28;20046;-70
2023/03/29 03:09:27;;;;;;;13.93;10.13;;;10.60;99.90;;;10.82;75.15;101270.13;4992980;28;20503;-70
2023/03/29 03:11:55;;;;;;;13.93;10.45;;;10.50;99.90;;;10.85;75.14;101259.56;4993103;28;20050;-70
2023/03/29 03:14:27;;;;;;;11.83;9.80;;;10.60;99.90;;;10.82;75.18;101270.13;4993017;28;20044;-70
2023/03/29 03:16:58;;;;;;;15.45;10.23;;;10.50;99.90;;;10.86;75.17;101263.94;4992890;28;20054;-70
2023/03/29 03:19:29;;;;;;;14.18;9.80;;;10.60;99.90;;;10.81;75.02;101241.00;4993010;28;20050;-70
2023/03/29 03:21:58;;;;;;;15.38;10.25;;;10.60;99.90;;;10.95;74.99;101267.47;4992822;28;20507;-70
2023/03/29 03:24:27;;;;;;;13.68;10.20;;;10.70;99.90;;;10.93;74.82;101266.59;4994038;28;20046;-70
2023/03/29 03:26:56;;;;;;;13.48;9.93;;;10.70;99.90;;;10.94;75.25;101261.28;4992683;28;20054;-70
2023/03/29 03:29:27;;;;;;;16.25;10.13;;;10.60;99.90;;;10.97;75.19;101260.44;4993748;28;20057;-70
2023/03/29 03:32:20;;;;;;;16.52;10.40;;;10.70;99.90;;;10.97;75.16;101252.47;4983549;28;20507;-70
2023/03/29 03:35:10;;;;;;;13.32;9.48;;;10.70;99.90;;;10.92;75.46;101252.47;4993334;28;20065;-70
2023/03/29 03:37:40;;;;;;;12.25;9.57;;;10.60;99.90;;;10.94;75.37;101252.50;4992379;28;20053;-70
2023/03/29 03:40:12;;;;;;;14.40;9.63;;;10.60;99.90;;;10.94;75.53;101248.06;4992126;28;20412;-70
2023/03/29 03:42:41;;;;;;;14.23;9.73;;;10.60;99.90;;;10.90;75.40;101249.84;4992054;28;20046;-71
2023/03/29 03:45:11;;;;;;;11.50;9.30;;;10.60;99.90;;;10.94;75.40;101258.66;4992269;28;20096;-70
2023/03/29 03:48:09;;;;;;;13.85;9.75;;;10.60;99.90;;;10.87;75.90;101254.25;4992205;28;20064;-70
2023/03/29 03:50:49;;;;;;;16.27;9.68;;;10.60;99.90;;;10.95;75.62;101263.09;4992003;28;20096;-70
2023/03/29 03:53:17;;;;;;;14.30;10.20;;;10.70;99.90;;;11.03;75.60;101269.25;4992226;28;20066;-70
2023/03/29 03:56:07;;;;;;;12.85;9.55;;;10.70;99.90;;;11.00;75.78;101250.72;4993144;28;20129;-70
2023/03/29 03:58:46;;;;;;;11.93;9.48;;;10.70;99.90;;;10.90;76.06;101243.66;4991962;28;20074;-70
2023/03/29 04:01:18;;;;;;;13.70;9.40;;;10.60;99.90;;;10.98;76.19;101255.13;4992315;28;20054;-70
2023/03/29 04:03:59;;;;;;;;;;;10.60;99.90;;;10.58;76.05;101190.75;4992465;28;20492;-70
2023/03/29 04:06:29;;;;;;;14.88;9.80;;;10.60;99.90;;;11.01;76.14;101251.59;4992035;28;19926;-70
2023/03/29 04:09:23;;;;;;;12.65;9.27;;;10.60;99.90;;;11.03;76.21;101247.19;4987030;28;20141;-70
2023/03/29 04:12:10;;;;;;;12.80;9.55;;;10.70;99.90;;;11.02;76.32;101248.94;4991522;28;20474;-70
2023/03/29 04:14:40;;;;;;;15.73;9.90;;;10.70;99.90;;;10.97;76.42;101237.50;4992072;28;20058;-70
2023/03/29 04:17:15;;;;;;;11.20;9.32;;;10.60;99.90;;;10.99;76.73;101234.84;4991784;28;20054;-70
2023/03/29 04:20:12;;;;;;;14.77;9.68;;;10.60;99.90;;;11.03;76.64;101226.03;4970612;28;20046;-70
2023/03/29 04:22:41;;;;;;;13.45;9.82;;;10.70;99.90;;;10.85;76.95;101218.97;4991788;28;20453;-70
2023/03/29 04:25:11;;;;;;;14.63;10.68;;;10.70;99.90;;;10.96;77.09;101225.13;4991954;28;20428;-70
2023/03/29 04:27:40;;;;;;;12.35;10.43;;;10.70;99.90;;;10.98;76.95;101230.41;4993344;28;20495;-70
2023/03/29 04:30:16;;;;;;;11.93;10.13;;;10.70;99.90;;;11.01;76.99;101223.38;4991567;28;20073;-70
2023/03/29 04:33:06;;;;;;;14.35;9.63;;;10.70;99.90;;;11.00;76.80;101228.66;4991755;28;20451;-70
2023/03/29 04:35:38;;;;;;;14.02;9.98;;;10.70;99.90;;;11.05;77.12;101225.16;4991799;28;20504;-70
2023/03/29 04:38:10;;;;;;;16.40;10.20;;;10.70;99.90;;;10.97;77.45;101220.72;4992972;28;20101;-70
2023/03/29 04:40:40;;;;;;;15.30;11.20;;;10.70;99.90;;;11.03;77.50;101216.31;4991725;28;20077;-70
2023/03/29 04:43:19;;;;;;;15.05;10.63;;;10.80;99.90;;;11.07;77.50;101215.41;4991500;28;20050;-70
2023/03/29 04:45:56;;;;;;;15.63;10.38;;;10.80;99.90;;;11.11;77.54;101211.00;4991764;28;20061;-70
2023/03/29 04:48:45;;;;;;;13.43;9.90;;;10.80;99.90;;;11.10;77.44;101209.25;4988710;28;20093;-70
2023/03/29 04:51:16;;;;;;;12.60;10.02;;;10.80;99.90;;;10.62;77.64;101144.00;4991538;28;20078;-70
2023/03/29 04:53:45;;;;;;;13.65;10.23;;;10.80;99.90;;;11.08;77.68;101218.94;4991414;28;20062;-70
2023/03/29 04:56:15;;;;;;;17.52;10.45;;;10.80;99.90;;;11.09;78.02;101241.91;4991852;28;20042;-70
2023/03/29 04:59:02;;;;;;;12.27;10.05;;;10.80;99.90;;;10.87;78.26;101196.03;4992875;28;20562;-71
2023/03/29 05:01:31;;;;;;;16.23;10.93;;;10.70;99.90;;;11.04;78.67;101219.81;4991627;28;20504;-70
2023/03/29 05:04:01;;;;;;;13.75;11.00;;;10.80;99.90;;;10.96;78.81;101222.47;4992619;28;20046;-70
2023/03/29 05:06:38;;;;;;;15.98;11.02;;;10.70;99.90;;;11.07;78.95;101226.00;4991473;28;20054;-70
2023/03/29 05:09:09;;;;;;;14.32;10.90;;;10.70;99.90;;;11.00;79.18;101233.94;4991115;28;20528;-70
2023/03/29 05:11:52;;;;;;;14.50;10.60;;;10.70;99.90;;;10.86;79.65;101208.38;4991662;28;20054;-70
2023/03/29 05:14:22;;;;;;;16.95;10.77;;;10.70;99.90;;;10.94;80.04;101224.25;4991450;28;20058;-70
2023/03/29 05:16:50;;;;;;;16.13;11.20;;;10.70;99.90;;;10.97;80.25;101232.19;4991278;28;20050;-70
2023/03/29 05:19:20;;;;;;;14.45;10.88;;;10.70;99.90;;;10.95;80.51;101236.63;4992588;28;20360;-70
2023/03/29 05:21:51;;;;;;;16.25;10.60;;;10.60;99.90;;;10.98;80.71;101231.31;4991177;28;20074;-70
2023/03/29 05:24:23;;;;;;;15.75;10.50;;;10.60;99.90;;;10.99;80.87;101230.44;4991482;28;20081;-70
2023/03/29 05:27:06;;;;;;;14.82;11.00;;;10.70;99.90;;;11.02;81.25;101230.41;4994938;28;20051;-70
2023/03/29 05:29:36;;;;;;;19.73;10.75;;;10.70;99.90;;;11.06;81.04;101231.28;4994630;28;20050;-70
2023/03/29 05:32:28;;;;;;;17.23;10.18;;;10.70;99.90;;;10.98;81.36;101206.59;4995022;28;20038;-70
2023/03/29 05:34:57;;;;;;;16.80;10.48;;;10.70;99.90;;;11.06;81.63;101226.91;4994451;28;20066;-70
2023/03/29 05:37:28;;;;;;;14.50;11.25;;;10.70;99.90;;;11.07;81.88;101225.13;4994727;28;20046;-69
2023/03/29 05:40:00;;;;;;;18.23;10.85;;;10.70;99.90;;;11.06;81.87;101232.19;4994847;28;20057;-69
2023/03/29 05:42:38;;;;;;;16.30;10.57;;;10.70;99.90;;;11.04;82.27;101233.06;4994707;28;20077;-70
2023/03/29 05:45:10;;;;;;;14.57;10.10;;;10.70;99.90;;;11.07;82.07;101233.94;4994763;28;20050;-70
2023/03/29 05:47:40;;;;;;;16.20;10.68;;;10.80;99.90;;;11.10;82.43;101233.06;4994636;28;20046;-70
2023/03/29 05:50:10;;;;;;;15.82;10.23;;;10.80;99.90;;;10.89;82.50;101183.69;4994727;28;20054;-70
2023/03/29 05:52:41;;;;;;;13.82;10.27;;;10.80;99.90;;;11.04;82.82;101225.13;4996117;28;20095;-70
2023/03/29 05:55:15;;;;;;;16.90;10.48;;;10.80;99.90;;;11.03;83.01;101218.97;4994561;28;20050;-70
2023/03/29 05:57:53;;;;;;;17.45;10.82;;;10.70;99.90;;;11.10;83.02;101219.81;4994096;28;20046;-69
2023/03/29 06:00:28;;;;;;;18.00;11.17;;;10.80;99.90;;;11.16;83.24;101220.72;4994813;28;20049;-69
2023/03/29 06:03:17;;;;;;;15.57;11.02;;;10.80;99.90;;;11.12;83.40;101218.94;4994446;28;20058;-71
2023/03/29 06:05:58;;;;;;;15.75;10.75;;;10.90;99.90;;;11.13;83.89;101220.69;4994509;28;20495;-70
2023/03/29 06:08:30;;;;;;;14.75;11.00;;;10.90;99.90;;;11.19;83.76;101225.13;4995768;28;20058;-70
2023/03/29 06:11:17;;;;;;;15.77;10.48;;;10.90;99.90;;;11.18;84.11;101218.06;4996135;28;20053;-70
2023/03/29 06:14:05;;;;;;;17.13;10.85;;;10.90;99.90;;;10.87;84.44;101166.91;4995536;28;20567;-70
2023/03/29 06:16:35;;;;;;;14.30;10.77;;;10.90;99.90;;;11.23;84.70;101219.81;4993960;28;20046;-70
2023/03/29 06:19:04;;;;;;;19.55;11.15;;;10.90;99.90;;;11.20;85.17;101226.88;4993922;28;20051;-70
2023/03/29 06:21:33;;;;;;;15.38;11.20;;;10.90;99.90;;;11.20;85.42;101219.81;4993943;28;20046;-70
2023/03/29 06:24:05;;;;;;;16.23;11.48;;;10.90;99.90;;;11.27;85.39;101221.56;4993660;28;20054;-70
2023/03/29 06:26:40;;;;;;;16.00;11.00;;;11.00;99.90;;;11.25;85.62;101225.09;4994004;28;20081;-70
2023/03/29 06:29:09;;;;;;;20.00;11.85;;;11.00;99.90;;;11.25;85.54;101238.34;4993853;28;20074;-70
2023/03/29 06:31:40;;;;;;;18.85;11.88;;;11.00;99.90;;;11.25;86.15;101233.94;4993997;28;20488;-70
2023/03/29 06:34:21;;;;;;;16.80;11.27;;;10.90;99.90;;;11.26;86.25;101230.41;4994011;28;20042;-71
2023/03/29 06:36:58;;;;;;;23.90;12.70;;;11.00;99.90;;;11.34;86.22;101227.75;4993321;28;20081;-71
2023/03/29 06:39:28;;;;;;;18.17;11.60;;;11.00;99.90;;;11.35;86.39;101224.19;4993564;28;20046;-71
2023/03/29 06:42:12;;;;;;;21.75;11.52;;;11.10;99.90;;;11.45;86.44;101226.84;4993922;28;20061;-68
2023/03/29 06:45:21;;;;;;;19.33;12.35;;;11.10;99.90;;;11.42;86.76;101228.63;4972247;28;20050;-69
2023/03/29 06:47:54;;;;;;;20.15;12.43;;;11.10;99.90;;;11.40;86.85;101228.59;4993622;28;20050;-69
2023/03/29 06:50:24;;;;;;;25.30;12.32;;;11.10;99.90;;;11.46;86.85;101228.59;4993376;28;20050;-68
2023/03/29 06:53:12;;;;;;;20.63;12.52;;;11.10;99.90;;;11.41;87.07;101240.09;4994524;28;20488;-68
2023/03/29 06:55:43;;;;;;;19.40;12.75;;;11.10;99.90;;;11.40;87.31;101238.34;4993151;28;20057;-68
2023/03/29 06:58:32;;;;;;;20.58;13.68;;;11.10;99.90;;;11.36;87.17;101234.78;4994125;28;20481;-68
2023/03/29 07:01:07;;;;;;;22.70;13.35;;;11.20;99.90;;;11.44;87.68;101243.59;4993126;28;20042;-67
2023/03/29 07:03:49;;;;;;;22.08;13.80;;;11.10;99.90;;;11.48;87.75;101249.78;4992878;28;20085;-68
2023/03/29 07:06:23;;;;;;;22.83;13.40;;;11.20;99.90;;;10.88;88.31;101143.09;4993384;28;20054;-68
2023/03/29 07:08:52;;;;;;;22.95;13.23;;;11.10;99.90;;;11.46;88.23;101251.53;4992764;28;20046;-68
2023/03/29 07:11:39;;;;;;;24.58;14.32;;;11.10;99.90;;;11.47;88.71;101248.91;4992937;28;20058;-68
2023/03/29 07:14:28;;;;;;;21.60;14.18;;;11.20;99.90;;;11.47;88.99;101240.97;4992955;28;20047;-68
2023/03/29 07:16:58;;;;;;;24.15;13.45;;;11.10;99.90;;;11.51;89.19;101249.78;4992994;28;20081;-69
2023/03/29 07:19:33;;;;;;;19.20;13.25;;;11.20;99.90;;;11.64;89.17;101249.75;4992714;28;20054;-69
2023/03/29 07:22:08;;;;;;;21.40;13.55;;;11.30;99.90;;;11.61;88.95;101256.84;4992776;28;20381;-69
2023/03/29 07:24:48;;;;;;;21.33;14.18;;;11.30;99.90;;;11.59;89.29;101261.25;4992705;28;20411;-69
2023/03/29 07:27:18;;;;;;;22.67;14.05;;;11.30;99.90;;;11.59;89.61;101259.47;4992388;28;20089;-69
2023/03/29 07:29:50;;;;;;;22.52;14.13;;;11.30;99.90;;;11.63;89.48;101263.88;4992627;28;20167;-69
2023/03/29 07:32:19;;;;;;;20.98;13.20;;;11.30;99.90;;;11.64;89.55;101260.34;4992422;28;20050;-69
2023/03/29 07:35:23;;;;;;;27.95;14.88;;;11.30;99.90;;;11.65;89.69;101254.19;4989487;28;20097;-68
2023/03/29 07:37:53;;;;;;;27.52;15.32;;;11.30;99.90;;;11.71;89.76;101240.06;4992140;28;20057;-69
2023/03/29 07:40:23;;;;;;;26.48;15.95;;;11.40;99.90;;;11.75;90.08;101250.63;4992424;28;20085;-68
2023/03/29 07:42:59;;;;;;;35.20;16.27;;;11.40;99.90;;;11.70;90.23;101244.47;4993423;28;20050;-70
2023/03/29 07:45:31;;;;;;;28.58;15.82;;;11.40;99.90;;;11.72;90.73;101248.00;4992097;28;20079;-68
2023/03/29 07:48:10;;;;;;;29.95;16.23;;;11.40;99.90;;;11.73;90.95;101270.06;4991598;28;20050;-68
2023/03/29 07:51:00;;;;;;;30.98;17.25;;;11.40;99.90;;;11.86;90.86;101257.66;4991938;28;20057;-68
2023/03/29 07:53:34;;;;;;;28.40;16.70;;;11.60;99.90;;;11.86;90.82;101261.22;4992194;28;20058;-68
2023/03/29 07:56:07;;;;;;;31.08;17.40;;;11.60;99.90;;;11.80;91.26;101245.31;4992425;28;20207;-69
2023/03/29 07:58:49;;;;;;;34.97;17.33;;;11.50;99.90;;;11.86;91.87;101247.06;4991974;28;20050;-69
2023/03/29 08:01:18;;;;;;;;;;;11.60;99.90;;;11.81;92.06;101252.38;4992577;28;20129;-68
2023/03/29 08:04:10;;;;;;;31.35;18.27;;;11.50;99.90;;;11.92;92.05;101239.09;4992804;28;19926;-68
2023/03/29 08:06:57;;;;;;;34.25;19.40;;;11.60;99.90;;;11.93;92.31;101249.69;4993019;28;20105;-68
2023/03/29 08:09:37;;;;;;;34.55;18.00;;;11.60;99.90;;;11.91;92.66;101267.38;4991633;28;20058;-68
2023/03/29 08:12:06;;;;;;;33.95;19.55;;;11.60;99.90;;;11.90;92.47;101244.41;4992427;28;20130;-69
2023/03/29 08:14:38;;;;;;;35.58;19.80;;;11.60;99.90;;;11.86;92.86;101229.41;4992176;28;20039;-68
2023/03/29 08:17:15;;;;;;;35.53;19.95;;;11.60;99.90;;;11.93;93.15;101246.13;4991832;28;20066;-68
2023/03/29 08:19:48;;;;;;;35.85;19.88;;;11.60;99.90;;;11.98;93.30;101250.53;4991745;28;20084;-68
2023/03/29 08:22:21;;;;;;;38.75;19.83;;;11.60;99.90;;;12.04;93.59;101257.59;4991883;28;20057;-69
2023/03/29 08:25:19;;;;;;;37.72;19.27;;;11.70;99.90;;;12.20;93.50;101256.63;4973782;28;20412;-68
2023/03/29 08:27:51;;;;;;;32.90;19.70;;;11.80;99.90;;;12.19;93.31;101254.88;4991708;28;20482;-69
2023/03/29 08:30:34;;;;;;;35.47;19.70;;;11.90;99.90;;;12.14;93.43;101244.28;4992054;28;20073;-69
2023/03/29 08:33:03;;;;;;;37.47;20.25;;;11.80;99.90;;;12.19;93.46;101250.47;4991434;28;20046;-68
2023/03/29 08:35:32;;;;;;;33.78;19.92;;;11.80;99.90;;;12.24;93.26;101248.66;4991677;28;20503;-68
2023/03/29 08:38:13;;;;;;;33.42;18.45;;;11.90;99.90;;;12.24;93.13;101250.41;4991751;28;20132;-68
2023/03/29 08:40:42;;;;;;;30.67;18.90;;;12.00;99.90;;;12.28;93.02;101260.13;4991625;28;20042;-68
2023/03/29 08:43:52;;;;;;;29.92;18.27;;;12.00;99.90;;;12.22;93.11;101261.03;4991340;28;20049;-68
2023/03/29 08:46:49;;;;;;;30.02;17.25;;;12.00;99.90;;;12.07;92.91;101234.59;4992959;28;20140;-69
2023/03/29 08:49:27;;;;;;;23.88;15.85;;;11.90;99.90;;;12.25;92.87;101254.84;4991568;28;20046;-68
2023/03/29 08:52:00;;;;;;;27.08;16.80;;;11.90;99.90;;;12.18;92.91;101253.09;4991472;28;20050;-69
2023/03/29 08:54:45;;;;;;;28.40;16.08;;;11.90;99.90;;;12.23;92.77;101246.88;4991302;28;20054;-69
2023/03/29 08:57:44;;;;;;;27.08;16.10;;;11.90;99.90;;;12.09;92.80;101216.91;4992709;28;20043;-68
2023/03/29 09:00:23;;;;;;;26.60;17.23;;;12.00;99.90;;;12.34;93.32;101255.69;4994918;28;20061;-68
2023/03/29 09:02:56;;;;;;;26.08;16.50;;;12.00;99.90;;;12.40;92.96;101252.09;4996846;28;20388;-69
2023/03/29 09:05:29;;;;;;;25.13;16.20;;;12.10;99.90;;;12.46;93.10;101246.78;4995536;28;20518;-69
2023/03/29 09:08:17;;;;;;;25.90;16.07;;;12.10;99.90;;;12.45;92.88;101242.34;4995486;28;20387;-68
2023/03/29 09:11:05;;;;;;;23.73;16.23;;;12.10;99.90;;;12.44;92.87;101238.84;4995519;28;20062;-70
2023/03/29 09:13:48;;;;;;;26.88;16.98;;;12.10;99.90;;;12.08;93.43;101188.63;4995582;28;20076;-71
2023/03/29 09:16:25;;;;;;;23.23;16.35;;;12.10;99.90;;;12.37;93.45;101247.69;4995590;28;20523;-70
2023/03/29 09:19:07;;;;;;;27.75;16.88;;;12.10;99.90;;;12.49;93.37;101260.91;4995475;28;20096;-69
2023/03/29 09:21:46;;;;;;;23.45;16.13;;;12.10;99.90;;;12.44;93.66;101251.22;4995242;28;20050;-69
2023/03/29 09:24:41;;;;;;;26.60;17.15;;;12.10;99.90;;;12.47;94.04;101246.75;4995121;28;20161;-69
2023/03/29 09:27:24;;;;;;;21.75;15.30;;;12.10;99.90;;;12.48;93.90;101248.53;4995064;28;20545;-70
2023/03/29 09:30:06;;;;;;;23.52;16.88;;;12.10;99.90;;;12.44;94.49;101249.44;4994906;28;20055;-70
2023/03/29 09:33:00;;;;;;;23.38;16.08;;;12.10;99.90;;;12.43;94.89;101262.69;4994965;28;20053;-70
2023/03/29 09:35:52;;;;;;;20.63;15.95;;;12.10;99.90;;;12.47;94.70;101262.69;5011056;28;20138;-70
2023/03/29 09:38:22;;;;;;;21.80;16.13;;;12.20;99.90;;;12.51;95.15;101260.88;4994875;28;20062;-70
2023/03/29 09:40:56;;;;;;;20.50;14.85;;;12.20;99.90;;;12.50;94.65;101256.47;4994477;28;20077;-71
2023/03/29 09:43:31;;;;;;;20.00;14.30;;;12.20;99.90;;;12.56;94.68;101261.75;4994860;28;20046;-70
2023/03/29 09:46:07;;;;;;;20.70;15.60;;;12.20;99.90;;;12.55;94.61;101259.97;4994877;28;20050;-70
2023/03/29 09:48:38;;;;;;;19.60;15.52;;;12.20;99.90;;;12.59;94.57;101261.72;4994579;28;20535;-70
2023/03/29 09:51:10;;;;;;;18.73;14.48;;;12.30;99.90;;;12.50;95.07;101253.81;4995742;28;20518;-70
2023/03/29 09:53:40;;;;;;;19.67;16.42;;;12.20;99.90;;;12.53;95.58;101264.41;4994426;28;20047;-69
2023/03/29 09:56:30;;;;;;;17.20;14.70;;;12.20;99.90;;;12.64;95.58;101265.22;4994550;28;20403;-70
2023/03/29 09:59:09;;;;;;;18.40;15.35;;;12.30;99.90;;;12.68;95.49;101257.22;4994002;28;20051;-69
2023/03/29 10:01:41;;;;;;;21.10;15.27;;;12.30;99.90;;;12.70;95.49;101246.59;4993947;28;20120;-70
2023/03/29 10:04:11;;;;;;;20.15;17.02;;;12.40;99.90;;;12.60;95.51;101231.66;4994542;28;20047;-70
2023/03/29 10:06:48;;;;;;;18.92;15.02;;;12.40;99.90;;;12.50;95.77;101241.41;4994190;28;20388;-70
2023/03/29 10:09:21;;;;;;;19.80;15.90;;;12.40;99.90;;;12.44;96.20;101211.41;4993742;28;20050;-70
2023/03/29 10:11:55;;;;;;;21.90;16.90;;;12.40;99.90;;;12.56;96.46;101244.03;4993227;28;20103;-68
2023/03/29 10:14:33;;;;;;;24.95;18.88;;;12.30;99.90;;;12.61;97.64;101249.31;4995093;28;20049;-69
2023/03/29 10:17:07;;;;;;;26.95;18.85;;;12.30;99.90;;;12.60;98.22;101260.84;4995620;28;20050;-69
2023/03/29 10:19:36;;;;;;;29.23;20.10;;;12.30;99.90;;;12.58;98.31;101259.97;4994819;28;20447;-69
2023/03/29 10:22:15;;;;;;;25.15;20.17;;;12.30;99.90;;;12.53;98.18;101236.09;4994866;28;20050;-69
2023/03/29 10:24:48;;;;;;;25.65;19.90;;;12.30;99.90;;;12.49;98.29;101196.31;4993754;28;20047;-69
2023/03/29 10:27:23;;;;;;;30.27;20.60;;;12.30;99.90;;;12.71;97.82;101224.50;4994819;28;20510;-70
2023/03/29 10:29:52;;;;;;;34.10;22.67;;;12.40;99.90;;;12.68;97.66;101228.03;4993745;28;20148;-70
2023/03/29 10:32:28;;;;;;;32.75;22.65;;;12.40;99.90;;;12.79;97.96;101222.66;4994968;28;20050;-70
2023/03/29 10:35:03;;;;;;;36.80;26.55;;;12.40;99.90;;;12.84;97.81;101207.56;4994802;28;20070;-71
2023/03/29 10:37:33;;;;;;;32.22;25.10;;;12.60;99.90;;;13.02;97.48;101204.75;4993574;28;20137;-71
2023/03/29 10:40:02;;;;;;;37.83;25.80;;;12.70;99.90;;;12.98;96.54;101199.47;4993386;28;20378;-71